Terminal Aerodrome Forecast
Issued by NWS

Home | Current Version | Previous Version | Text Only | Print | Product List | Glossary On
Versions: 1 2 3 4 5 6 7 8 9 10 11 12 13 14
000
FTPA31 PHFO 211123
TAFHNY
TAF
PHNY 211123Z 2112/2212 05011KT P6SM SKC
     FM211900 04015G22KT P6SM SCT025
     FM212300 04020G28KT P6SM SCT025
     FM220400 04015KT P6SM FEW025
     FM221000 04010KT P6SM FEW025=

USA.gov is the U.S. government's official web portal to all federal, state and local government web resources and services.